sensor_id;sensor_type;location;lat;lon;timestamp;P1;durP1;ratioP1;P2;durP2;ratioP2
76336;SDS011;65157;50.082;18.178;2023-07-02T00:01:48;6.70;;;6.00;;
76336;SDS011;65157;50.082;18.178;2023-07-02T00:04:15;11.00;;;5.60;;
76336;SDS011;65157;50.082;18.178;2023-07-02T00:06:42;6.60;;;5.60;;
76336;SDS011;65157;50.082;18.178;2023-07-02T00:09:10;8.50;;;5.10;;
76336;SDS011;65157;50.082;18.178;2023-07-02T00:11:40;6.10;;;5.00;;
76336;SDS011;65157;50.082;18.178;2023-07-02T00:14:09;8.40;;;5.40;;
76336;SDS011;65157;50.082;18.178;2023-07-02T00:16:41;11.30;;;5.80;;
76336;SDS011;65157;50.082;18.178;2023-07-02T00:19:09;7.70;;;5.80;;
76336;SDS011;65157;50.082;18.178;2023-07-02T00:24:02;7.60;;;6.40;;
76336;SDS011;65157;50.082;18.178;2023-07-02T00:26:29;10.00;;;6.10;;
76336;SDS011;65157;50.082;18.178;2023-07-02T00:28:56;9.80;;;6.10;;
76336;SDS011;65157;50.082;18.178;2023-07-02T00:31:23;9.10;;;5.40;;
76336;SDS011;65157;50.082;18.178;2023-07-02T00:33:50;9.60;;;5.40;;
76336;SDS011;65157;50.082;18.178;2023-07-02T00:36:17;6.80;;;5.00;;
76336;SDS011;65157;50.082;18.178;2023-07-02T00:38:44;8.10;;;5.40;;
76336;SDS011;65157;50.082;18.178;2023-07-02T00:41:12;7.70;;;6.90;;
76336;SDS011;65157;50.082;18.178;2023-07-02T00:43:38;7.50;;;6.10;;
76336;SDS011;65157;50.082;18.178;2023-07-02T00:46:05;7.90;;;6.40;;
76336;SDS011;65157;50.082;18.178;2023-07-02T00:48:31;11.30;;;6.20;;
76336;SDS011;65157;50.082;18.178;2023-07-02T00:50:58;6.80;;;5.70;;
76336;SDS011;65157;50.082;18.178;2023-07-02T00:55:51;10.90;;;6.10;;
76336;SDS011;65157;50.082;18.178;2023-07-02T00:58:17;14.00;;;6.40;;
76336;SDS011;65157;50.082;18.178;2023-07-02T01:00:44;8.80;;;6.20;;
76336;SDS011;65157;50.082;18.178;2023-07-02T01:03:11;6.50;;;5.40;;
76336;SDS011;65157;50.082;18.178;2023-07-02T01:05:37;7.40;;;6.60;;
76336;SDS011;65157;50.082;18.178;2023-07-02T01:08:04;7.90;;;5.90;;
76336;SDS011;65157;50.082;18.178;2023-07-02T01:10:31;6.30;;;5.50;;
76336;SDS011;65157;50.082;18.178;2023-07-02T01:13:00;8.10;;;6.80;;
76336;SDS011;65157;50.082;18.178;2023-07-02T01:15:30;10.30;;;6.70;;
76336;SDS011;65157;50.082;18.178;2023-07-02T01:17:58;10.50;;;6.40;;
76336;SDS011;65157;50.082;18.178;2023-07-02T01:22:51;8.90;;;6.50;;
76336;SDS011;65157;50.082;18.178;2023-07-02T01:25:18;7.00;;;5.40;;
76336;SDS011;65157;50.082;18.178;2023-07-02T01:27:44;9.40;;;6.00;;
76336;SDS011;65157;50.082;18.178;2023-07-02T01:30:11;8.50;;;6.00;;
76336;SDS011;65157;50.082;18.178;2023-07-02T01:32:38;9.20;;;6.50;;
76336;SDS011;65157;50.082;18.178;2023-07-02T01:35:04;7.50;;;6.20;;
76336;SDS011;65157;50.082;18.178;2023-07-02T01:37:31;8.60;;;6.00;;
76336;SDS011;65157;50.082;18.178;2023-07-02T01:39:59;7.80;;;6.60;;
76336;SDS011;65157;50.082;18.178;2023-07-02T01:42:25;8.00;;;5.70;;
76336;SDS011;65157;50.082;18.178;2023-07-02T01:44:54;13.80;;;5.70;;
76336;SDS011;65157;50.082;18.178;2023-07-02T01:47:21;7.50;;;6.00;;
76336;SDS011;65157;50.082;18.178;2023-07-02T01:49:47;9.80;;;6.50;;
76336;SDS011;65157;50.082;18.178;2023-07-02T01:54:40;10.60;;;5.60;;
76336;SDS011;65157;50.082;18.178;2023-07-02T01:57:06;7.60;;;5.60;;
76336;SDS011;65157;50.082;18.178;2023-07-02T01:59:33;9.50;;;6.10;;
76336;SDS011;65157;50.082;18.178;2023-07-02T02:02:00;10.50;;;6.10;;
76336;SDS011;65157;50.082;18.178;2023-07-02T02:06:53;7.80;;;5.60;;
76336;SDS011;65157;50.082;18.178;2023-07-02T02:09:20;8.80;;;6.20;;
76336;SDS011;65157;50.082;18.178;2023-07-02T02:11:48;8.00;;;5.60;;
76336;SDS011;65157;50.082;18.178;2023-07-02T02:14:16;7.50;;;6.00;;
76336;SDS011;65157;50.082;18.178;2023-07-02T02:16:43;8.70;;;4.90;;
76336;SDS011;65157;50.082;18.178;2023-07-02T02:19:09;7.10;;;5.50;;
76336;SDS011;65157;50.082;18.178;2023-07-02T02:21:37;8.60;;;5.90;;
76336;SDS011;65157;50.082;18.178;2023-07-02T02:24:05;9.60;;;6.50;;
76336;SDS011;65157;50.082;18.178;2023-07-02T02:26:32;10.40;;;5.90;;
76336;SDS011;65157;50.082;18.178;2023-07-02T02:29:01;9.40;;;5.50;;
76336;SDS011;65157;50.082;18.178;2023-07-02T02:31:28;8.30;;;4.90;;
76336;SDS011;65157;50.082;18.178;2023-07-02T02:33:55;7.40;;;5.30;;
76336;SDS011;65157;50.082;18.178;2023-07-02T02:36:21;8.10;;;6.40;;
76336;SDS011;65157;50.082;18.178;2023-07-02T02:38:48;7.10;;;6.00;;
76336;SDS011;65157;50.082;18.178;2023-07-02T02:41:15;7.30;;;5.10;;
76336;SDS011;65157;50.082;18.178;2023-07-02T02:43:42;6.60;;;5.30;;
76336;SDS011;65157;50.082;18.178;2023-07-02T02:46:12;7.30;;;5.50;;
76336;SDS011;65157;50.082;18.178;2023-07-02T02:48:38;6.20;;;5.20;;
76336;SDS011;65157;50.082;18.178;2023-07-02T02:51:05;5.80;;;4.90;;
76336;SDS011;65157;50.082;18.178;2023-07-02T02:53:32;7.20;;;5.60;;
76336;SDS011;65157;50.082;18.178;2023-07-02T02:55:58;7.70;;;5.00;;
76336;SDS011;65157;50.082;18.178;2023-07-02T02:58:25;8.50;;;5.80;;
76336;SDS011;65157;50.082;18.178;2023-07-02T03:00:51;8.00;;;5.60;;
76336;SDS011;65157;50.082;18.178;2023-07-02T03:03:17;8.10;;;6.00;;
76336;SDS011;65157;50.082;18.178;2023-07-02T03:05:44;10.80;;;7.00;;
76336;SDS011;65157;50.082;18.178;2023-07-02T03:08:10;11.00;;;5.10;;
76336;SDS011;65157;50.082;18.178;2023-07-02T03:10:37;11.30;;;5.60;;
76336;SDS011;65157;50.082;18.178;2023-07-02T03:13:03;7.70;;;4.90;;
76336;SDS011;65157;50.082;18.178;2023-07-02T03:15:30;7.30;;;6.20;;
76336;SDS011;65157;50.082;18.178;2023-07-02T03:17:56;9.60;;;5.70;;
76336;SDS011;65157;50.082;18.178;2023-07-02T03:20:24;9.10;;;4.90;;
76336;SDS011;65157;50.082;18.178;2023-07-02T03:25:17;5.80;;;3.70;;
76336;SDS011;65157;50.082;18.178;2023-07-02T03:27:43;9.10;;;3.90;;
76336;SDS011;65157;50.082;18.178;2023-07-02T03:30:10;8.40;;;4.80;;
76336;SDS011;65157;50.082;18.178;2023-07-02T03:32:36;8.90;;;4.40;;
76336;SDS011;65157;50.082;18.178;2023-07-02T03:35:03;6.20;;;4.60;;
76336;SDS011;65157;50.082;18.178;2023-07-02T03:37:30;7.30;;;4.40;;
76336;SDS011;65157;50.082;18.178;2023-07-02T03:39:56;5.20;;;4.60;;
76336;SDS011;65157;50.082;18.178;2023-07-02T03:42:23;8.60;;;5.20;;
76336;SDS011;65157;50.082;18.178;2023-07-02T03:44:49;6.50;;;4.90;;
76336;SDS011;65157;50.082;18.178;2023-07-02T03:47:15;5.60;;;5.10;;
76336;SDS011;65157;50.082;18.178;2023-07-02T03:49:42;7.50;;;5.40;;
76336;SDS011;65157;50.082;18.178;2023-07-02T03:52:08;9.30;;;5.90;;
76336;SDS011;65157;50.082;18.178;2023-07-02T03:54:35;8.60;;;5.60;;
76336;SDS011;65157;50.082;18.178;2023-07-02T03:59:28;6.00;;;5.10;;
76336;SDS011;65157;50.082;18.178;2023-07-02T04:01:55;6.60;;;4.30;;
76336;SDS011;65157;50.082;18.178;2023-07-02T04:04:21;7.10;;;6.50;;
76336;SDS011;65157;50.082;18.178;2023-07-02T04:06:48;7.10;;;5.00;;
76336;SDS011;65157;50.082;18.178;2023-07-02T04:09:14;7.20;;;4.40;;
76336;SDS011;65157;50.082;18.178;2023-07-02T04:11:41;7.50;;;5.30;;
76336;SDS011;65157;50.082;18.178;2023-07-02T04:14:07;6.20;;;5.00;;
76336;SDS011;65157;50.082;18.178;2023-07-02T04:16:34;5.40;;;4.60;;
76336;SDS011;65157;50.082;18.178;2023-07-02T04:19:00;6.50;;;5.20;;
76336;SDS011;65157;50.082;18.178;2023-07-02T04:21:26;8.80;;;5.20;;
76336;SDS011;65157;50.082;18.178;2023-07-02T04:23:53;8.30;;;6.10;;
76336;SDS011;65157;50.082;18.178;2023-07-02T04:26:19;7.60;;;5.00;;
76336;SDS011;65157;50.082;18.178;2023-07-02T04:28:46;8.80;;;5.80;;
76336;SDS011;65157;50.082;18.178;2023-07-02T04:31:12;7.90;;;4.80;;
76336;SDS011;65157;50.082;18.178;2023-07-02T04:33:39;7.80;;;5.40;;
76336;SDS011;65157;50.082;18.178;2023-07-02T04:36:06;7.40;;;5.60;;
76336;SDS011;65157;50.082;18.178;2023-07-02T04:38:32;5.90;;;5.20;;
76336;SDS011;65157;50.082;18.178;2023-07-02T04:41:01;9.00;;;5.60;;
76336;SDS011;65157;50.082;18.178;2023-07-02T04:43:28;7.70;;;5.70;;
76336;SDS011;65157;50.082;18.178;2023-07-02T04:45:55;6.20;;;4.50;;
76336;SDS011;65157;50.082;18.178;2023-07-02T04:48:22;7.30;;;4.70;;
76336;SDS011;65157;50.082;18.178;2023-07-02T04:50:49;7.60;;;5.30;;
76336;SDS011;65157;50.082;18.178;2023-07-02T04:53:16;6.50;;;4.60;;
76336;SDS011;65157;50.082;18.178;2023-07-02T04:55:43;6.80;;;4.40;;
76336;SDS011;65157;50.082;18.178;2023-07-02T04:58:09;10.80;;;5.30;;
76336;SDS011;65157;50.082;18.178;2023-07-02T05:00:36;6.90;;;5.50;;
76336;SDS011;65157;50.082;18.178;2023-07-02T05:03:03;7.80;;;4.80;;
76336;SDS011;65157;50.082;18.178;2023-07-02T05:05:30;7.00;;;4.50;;
76336;SDS011;65157;50.082;18.178;2023-07-02T05:10:23;7.20;;;4.30;;
76336;SDS011;65157;50.082;18.178;2023-07-02T05:12:49;5.40;;;4.90;;
76336;SDS011;65157;50.082;18.178;2023-07-02T05:15:16;6.70;;;6.00;;
76336;SDS011;65157;50.082;18.178;2023-07-02T05:17:43;10.40;;;5.90;;
76336;SDS011;65157;50.082;18.178;2023-07-02T05:22:36;8.00;;;4.60;;
76336;SDS011;65157;50.082;18.178;2023-07-02T05:25:03;6.90;;;4.70;;
76336;SDS011;65157;50.082;18.178;2023-07-02T05:27:30;5.40;;;4.90;;
76336;SDS011;65157;50.082;18.178;2023-07-02T05:29:56;7.40;;;5.60;;
76336;SDS011;65157;50.082;18.178;2023-07-02T05:34:49;5.80;;;4.50;;
76336;SDS011;65157;50.082;18.178;2023-07-02T05:39:43;7.50;;;6.90;;
76336;SDS011;65157;50.082;18.178;2023-07-02T05:42:09;6.70;;;6.10;;
76336;SDS011;65157;50.082;18.178;2023-07-02T05:44:36;5.20;;;4.80;;
76336;SDS011;65157;50.082;18.178;2023-07-02T05:47:03;7.30;;;6.70;;
76336;SDS011;65157;50.082;18.178;2023-07-02T05:49:29;8.30;;;5.60;;
76336;SDS011;65157;50.082;18.178;2023-07-02T05:51:56;7.80;;;6.10;;
76336;SDS011;65157;50.082;18.178;2023-07-02T05:54:23;8.00;;;4.30;;
76336;SDS011;65157;50.082;18.178;2023-07-02T05:56:49;7.00;;;6.30;;
76336;SDS011;65157;50.082;18.178;2023-07-02T05:59:16;6.90;;;4.50;;
76336;SDS011;65157;50.082;18.178;2023-07-02T06:01:42;5.60;;;3.80;;
76336;SDS011;65157;50.082;18.178;2023-07-02T06:06:35;6.30;;;4.30;;
76336;SDS011;65157;50.082;18.178;2023-07-02T06:09:02;6.60;;;4.60;;
76336;SDS011;65157;50.082;18.178;2023-07-02T06:13:55;6.20;;;4.00;;
76336;SDS011;65157;50.082;18.178;2023-07-02T06:16:21;6.90;;;4.90;;
76336;SDS011;65157;50.082;18.178;2023-07-02T06:18:48;5.90;;;4.20;;
76336;SDS011;65157;50.082;18.178;2023-07-02T06:21:14;6.60;;;5.80;;
76336;SDS011;65157;50.082;18.178;2023-07-02T06:23:44;7.80;;;5.40;;
76336;SDS011;65157;50.082;18.178;2023-07-02T06:26:10;6.30;;;4.60;;
76336;SDS011;65157;50.082;18.178;2023-07-02T06:28:38;5.10;;;4.60;;
76336;SDS011;65157;50.082;18.178;2023-07-02T06:31:05;5.90;;;4.70;;
76336;SDS011;65157;50.082;18.178;2023-07-02T06:33:32;5.50;;;4.60;;
76336;SDS011;65157;50.082;18.178;2023-07-02T06:38:25;4.00;;;3.40;;
76336;SDS011;65157;50.082;18.178;2023-07-02T06:40:54;4.30;;;3.90;;
76336;SDS011;65157;50.082;18.178;2023-07-02T06:45:47;6.10;;;3.00;;
76336;SDS011;65157;50.082;18.178;2023-07-02T06:48:14;4.30;;;3.90;;
76336;SDS011;65157;50.082;18.178;2023-07-02T06:50:42;4.00;;;3.00;;
76336;SDS011;65157;50.082;18.178;2023-07-02T06:53:12;4.70;;;3.50;;
76336;SDS011;65157;50.082;18.178;2023-07-02T06:55:39;4.20;;;3.00;;
76336;SDS011;65157;50.082;18.178;2023-07-02T06:58:06;5.70;;;4.70;;
76336;SDS011;65157;50.082;18.178;2023-07-02T07:02:59;3.60;;;3.20;;
76336;SDS011;65157;50.082;18.178;2023-07-02T07:05:26;3.50;;;3.30;;
76336;SDS011;65157;50.082;18.178;2023-07-02T07:07:52;3.90;;;3.10;;
76336;SDS011;65157;50.082;18.178;2023-07-02T07:10:19;4.60;;;4.20;;
76336;SDS011;65157;50.082;18.178;2023-07-02T07:12:45;4.90;;;4.50;;
76336;SDS011;65157;50.082;18.178;2023-07-02T07:15:15;5.80;;;5.40;;
76336;SDS011;65157;50.082;18.178;2023-07-02T07:17:41;4.60;;;4.20;;
76336;SDS011;65157;50.082;18.178;2023-07-02T07:20:08;4.30;;;3.90;;
76336;SDS011;65157;50.082;18.178;2023-07-02T07:22:36;7.00;;;4.00;;
76336;SDS011;65157;50.082;18.178;2023-07-02T07:25:03;4.40;;;4.00;;
76336;SDS011;65157;50.082;18.178;2023-07-02T07:27:33;5.40;;;4.20;;
76336;SDS011;65157;50.082;18.178;2023-07-02T07:29:59;4.30;;;3.70;;
76336;SDS011;65157;50.082;18.178;2023-07-02T07:32:26;3.00;;;2.80;;
76336;SDS011;65157;50.082;18.178;2023-07-02T07:34:53;4.60;;;3.80;;
76336;SDS011;65157;50.082;18.178;2023-07-02T07:37:19;4.30;;;3.50;;
76336;SDS011;65157;50.082;18.178;2023-07-02T07:39:46;3.90;;;3.60;;
76336;SDS011;65157;50.082;18.178;2023-07-02T07:42:13;3.60;;;3.30;;
76336;SDS011;65157;50.082;18.178;2023-07-02T07:44:40;3.60;;;3.30;;
76336;SDS011;65157;50.082;18.178;2023-07-02T07:49:33;3.10;;;2.90;;
76336;SDS011;65157;50.082;18.178;2023-07-02T07:54:26;4.30;;;3.70;;
76336;SDS011;65157;50.082;18.178;2023-07-02T07:59:19;4.30;;;3.50;;
76336;SDS011;65157;50.082;18.178;2023-07-02T08:01:46;3.20;;;2.90;;
76336;SDS011;65157;50.082;18.178;2023-07-02T08:06:39;4.30;;;4.00;;
76336;SDS011;65157;50.082;18.178;2023-07-02T08:09:05;3.70;;;3.40;;
76336;SDS011;65157;50.082;18.178;2023-07-02T08:13:58;4.60;;;3.00;;
76336;SDS011;65157;50.082;18.178;2023-07-02T08:18:51;4.10;;;3.70;;
76336;SDS011;65157;50.082;18.178;2023-07-02T08:21:18;6.40;;;3.80;;
76336;SDS011;65157;50.082;18.178;2023-07-02T08:23:45;3.60;;;3.30;;
76336;SDS011;65157;50.082;18.178;2023-07-02T08:28:38;2.80;;;2.60;;
76336;SDS011;65157;50.082;18.178;2023-07-02T08:33:31;4.30;;;4.00;;
76336;SDS011;65157;50.082;18.178;2023-07-02T08:38:24;3.20;;;3.00;;
76336;SDS011;65157;50.082;18.178;2023-07-02T08:40:54;3.30;;;3.10;;
76336;SDS011;65157;50.082;18.178;2023-07-02T08:45:47;3.70;;;3.10;;
76336;SDS011;65157;50.082;18.178;2023-07-02T08:48:14;4.80;;;4.30;;
76336;SDS011;65157;50.082;18.178;2023-07-02T08:50:42;4.80;;;4.30;;
76336;SDS011;65157;50.082;18.178;2023-07-02T08:53:08;3.70;;;3.40;;
76336;SDS011;65157;50.082;18.178;2023-07-02T08:58:01;4.40;;;3.90;;
76336;SDS011;65157;50.082;18.178;2023-07-02T09:00:28;5.30;;;4.90;;
76336;SDS011;65157;50.082;18.178;2023-07-02T09:02:55;4.30;;;4.00;;
76336;SDS011;65157;50.082;18.178;2023-07-02T09:05:21;4.70;;;4.40;;
76336;SDS011;65157;50.082;18.178;2023-07-02T09:07:48;3.70;;;2.70;;
76336;SDS011;65157;50.082;18.178;2023-07-02T09:10:28;3.20;;;3.00;;
76336;SDS011;65157;50.082;18.178;2023-07-02T09:13:05;5.00;;;4.60;;
76336;SDS011;65157;50.082;18.178;2023-07-02T09:15:39;3.70;;;3.40;;
76336;SDS011;65157;50.082;18.178;2023-07-02T09:18:16;3.50;;;3.30;;
76336;SDS011;65157;50.082;18.178;2023-07-02T09:20:49;3.70;;;2.80;;
76336;SDS011;65157;50.082;18.178;2023-07-02T09:23:18;4.30;;;3.40;;
76336;SDS011;65157;50.082;18.178;2023-07-02T09:25:44;3.90;;;3.50;;
76336;SDS011;65157;50.082;18.178;2023-07-02T09:28:18;3.90;;;3.60;;
76336;SDS011;65157;50.082;18.178;2023-07-02T09:30:48;3.40;;;3.10;;
76336;SDS011;65157;50.082;18.178;2023-07-02T09:33:27;4.20;;;3.30;;
76336;SDS011;65157;50.082;18.178;2023-07-02T09:35:54;5.70;;;3.70;;
76336;SDS011;65157;50.082;18.178;2023-07-02T09:38:21;3.80;;;3.30;;
76336;SDS011;65157;50.082;18.178;2023-07-02T09:40:54;3.70;;;3.50;;
76336;SDS011;65157;50.082;18.178;2023-07-02T09:43:22;4.10;;;3.30;;
76336;SDS011;65157;50.082;18.178;2023-07-02T09:45:52;2.70;;;2.60;;
76336;SDS011;65157;50.082;18.178;2023-07-02T09:48:23;3.50;;;3.20;;
76336;SDS011;65157;50.082;18.178;2023-07-02T09:50:52;4.70;;;4.40;;
76336;SDS011;65157;50.082;18.178;2023-07-02T09:53:20;4.60;;;4.30;;
76336;SDS011;65157;50.082;18.178;2023-07-02T09:55:46;2.60;;;2.50;;
76336;SDS011;65157;50.082;18.178;2023-07-02T09:58:13;4.20;;;3.90;;
76336;SDS011;65157;50.082;18.178;2023-07-02T10:00:40;4.90;;;4.50;;
76336;SDS011;65157;50.082;18.178;2023-07-02T10:03:06;3.10;;;2.90;;
76336;SDS011;65157;50.082;18.178;2023-07-02T10:05:33;4.60;;;4.20;;
76336;SDS011;65157;50.082;18.178;2023-07-02T10:08:13;3.30;;;3.10;;
76336;SDS011;65157;50.082;18.178;2023-07-02T10:10:43;4.00;;;3.60;;
76336;SDS011;65157;50.082;18.178;2023-07-02T10:13:09;2.60;;;2.40;;
76336;SDS011;65157;50.082;18.178;2023-07-02T10:15:38;3.00;;;2.80;;
76336;SDS011;65157;50.082;18.178;2023-07-02T10:18:05;5.30;;;4.90;;
76336;SDS011;65157;50.082;18.178;2023-07-02T10:20:33;4.10;;;3.70;;
76336;SDS011;65157;50.082;18.178;2023-07-02T10:23:00;2.50;;;2.30;;
76336;SDS011;65157;50.082;18.178;2023-07-02T10:25:28;3.10;;;2.90;;
76336;SDS011;65157;50.082;18.178;2023-07-02T10:27:55;4.10;;;3.90;;
76336;SDS011;65157;50.082;18.178;2023-07-02T10:30:33;2.00;;;1.90;;
76336;SDS011;65157;50.082;18.178;2023-07-02T10:33:08;2.90;;;2.50;;
76336;SDS011;65157;50.082;18.178;2023-07-02T10:35:35;1.60;;;1.50;;
76336;SDS011;65157;50.082;18.178;2023-07-02T10:38:02;3.40;;;3.20;;
76336;SDS011;65157;50.082;18.178;2023-07-02T10:40:29;2.50;;;2.40;;
76336;SDS011;65157;50.082;18.178;2023-07-02T10:42:56;2.40;;;2.30;;
76336;SDS011;65157;50.082;18.178;2023-07-02T10:45:33;2.10;;;1.80;;
76336;SDS011;65157;50.082;18.178;2023-07-02T10:48:02;2.00;;;1.90;;
76336;SDS011;65157;50.082;18.178;2023-07-02T10:53:16;1.60;;;1.60;;
76336;SDS011;65157;50.082;18.178;2023-07-02T10:55:43;1.70;;;1.60;;
76336;SDS011;65157;50.082;18.178;2023-07-02T10:58:30;2.00;;;1.90;;
76336;SDS011;65157;50.082;18.178;2023-07-02T11:00:56;3.10;;;3.00;;
76336;SDS011;65157;50.082;18.178;2023-07-02T11:03:24;2.10;;;2.00;;
76336;SDS011;65157;50.082;18.178;2023-07-02T11:05:52;1.30;;;1.30;;
76336;SDS011;65157;50.082;18.178;2023-07-02T11:08:20;1.20;;;1.10;;
76336;SDS011;65157;50.082;18.178;2023-07-02T11:10:49;2.80;;;2.70;;
76336;SDS011;65157;50.082;18.178;2023-07-02T11:13:19;2.70;;;2.60;;
76336;SDS011;65157;50.082;18.178;2023-07-02T11:15:46;2.00;;;1.90;;
76336;SDS011;65157;50.082;18.178;2023-07-02T11:18:14;2.70;;;2.60;;
76336;SDS011;65157;50.082;18.178;2023-07-02T11:20:42;1.60;;;1.50;;
76336;SDS011;65157;50.082;18.178;2023-07-02T11:23:22;2.90;;;1.90;;
76336;SDS011;65157;50.082;18.178;2023-07-02T11:26:02;2.40;;;2.30;;
76336;SDS011;65157;50.082;18.178;2023-07-02T11:28:30;2.60;;;2.50;;
76336;SDS011;65157;50.082;18.178;2023-07-02T11:30:58;2.00;;;1.90;;
76336;SDS011;65157;50.082;18.178;2023-07-02T11:36:05;2.30;;;1.80;;
76336;SDS011;65157;50.082;18.178;2023-07-02T11:38:36;1.80;;;1.70;;
76336;SDS011;65157;50.082;18.178;2023-07-02T11:41:03;3.20;;;2.20;;
76336;SDS011;65157;50.082;18.178;2023-07-02T11:43:30;2.20;;;2.10;;
76336;SDS011;65157;50.082;18.178;2023-07-02T11:45:57;3.20;;;2.70;;
76336;SDS011;65157;50.082;18.178;2023-07-02T11:48:23;3.90;;;1.50;;
76336;SDS011;65157;50.082;18.178;2023-07-02T11:50:50;1.70;;;1.50;;
76336;SDS011;65157;50.082;18.178;2023-07-02T11:53:17;2.00;;;1.90;;
76336;SDS011;65157;50.082;18.178;2023-07-02T11:55:43;3.70;;;3.50;;
76336;SDS011;65157;50.082;18.178;2023-07-02T11:58:10;3.00;;;2.80;;
76336;SDS011;65157;50.082;18.178;2023-07-02T12:00:45;3.50;;;3.20;;
76336;SDS011;65157;50.082;18.178;2023-07-02T12:03:12;4.00;;;3.60;;
76336;SDS011;65157;50.082;18.178;2023-07-02T12:05:38;3.20;;;2.40;;
76336;SDS011;65157;50.082;18.178;2023-07-02T12:10:31;2.70;;;2.50;;
76336;SDS011;65157;50.082;18.178;2023-07-02T12:15:24;3.20;;;3.00;;
76336;SDS011;65157;50.082;18.178;2023-07-02T12:20:17;3.20;;;3.00;;
76336;SDS011;65157;50.082;18.178;2023-07-02T12:25:10;3.20;;;3.10;;
76336;SDS011;65157;50.082;18.178;2023-07-02T12:27:38;3.20;;;3.00;;
76336;SDS011;65157;50.082;18.178;2023-07-02T12:32:31;2.90;;;2.80;;
76336;SDS011;65157;50.082;18.178;2023-07-02T12:34:58;2.30;;;2.20;;
76336;SDS011;65157;50.082;18.178;2023-07-02T12:39:50;3.50;;;3.20;;
76336;SDS011;65157;50.082;18.178;2023-07-02T12:42:17;3.50;;;3.30;;
76336;SDS011;65157;50.082;18.178;2023-07-02T12:47:10;2.30;;;2.20;;
76336;SDS011;65157;50.082;18.178;2023-07-02T12:49:36;3.40;;;3.10;;
76336;SDS011;65157;50.082;18.178;2023-07-02T12:52:03;2.20;;;2.10;;
76336;SDS011;65157;50.082;18.178;2023-07-02T12:54:30;1.70;;;1.60;;
76336;SDS011;65157;50.082;18.178;2023-07-02T12:56:56;3.70;;;3.40;;
76336;SDS011;65157;50.082;18.178;2023-07-02T12:59:23;2.20;;;2.00;;
76336;SDS011;65157;50.082;18.178;2023-07-02T13:01:49;3.10;;;2.60;;
76336;SDS011;65157;50.082;18.178;2023-07-02T13:04:16;3.00;;;2.90;;
76336;SDS011;65157;50.082;18.178;2023-07-02T13:06:43;1.80;;;1.70;;
76336;SDS011;65157;50.082;18.178;2023-07-02T13:11:35;3.60;;;3.40;;
76336;SDS011;65157;50.082;18.178;2023-07-02T13:16:28;3.80;;;3.60;;
76336;SDS011;65157;50.082;18.178;2023-07-02T13:18:56;1.90;;;1.80;;
76336;SDS011;65157;50.082;18.178;2023-07-02T13:21:22;1.90;;;1.80;;
76336;SDS011;65157;50.082;18.178;2023-07-02T13:23:49;2.00;;;1.90;;
76336;SDS011;65157;50.082;18.178;2023-07-02T13:28:42;3.00;;;2.80;;
76336;SDS011;65157;50.082;18.178;2023-07-02T13:31:08;2.70;;;2.50;;
76336;SDS011;65157;50.082;18.178;2023-07-02T13:36:01;4.40;;;4.10;;
76336;SDS011;65157;50.082;18.178;2023-07-02T13:38:30;3.10;;;2.90;;
76336;SDS011;65157;50.082;18.178;2023-07-02T13:40:57;1.80;;;1.70;;
76336;SDS011;65157;50.082;18.178;2023-07-02T13:43:24;2.50;;;2.30;;
76336;SDS011;65157;50.082;18.178;2023-07-02T13:45:51;2.10;;;2.00;;
76336;SDS011;65157;50.082;18.178;2023-07-02T13:48:18;2.10;;;2.00;;
76336;SDS011;65157;50.082;18.178;2023-07-02T13:50:46;2.10;;;2.00;;
76336;SDS011;65157;50.082;18.178;2023-07-02T13:53:12;2.00;;;1.90;;
76336;SDS011;65157;50.082;18.178;2023-07-02T13:55:41;2.30;;;2.20;;
76336;SDS011;65157;50.082;18.178;2023-07-02T13:58:08;1.70;;;1.60;;
76336;SDS011;65157;50.082;18.178;2023-07-02T14:00:34;1.80;;;1.70;;
76336;SDS011;65157;50.082;18.178;2023-07-02T14:03:01;4.50;;;4.20;;
76336;SDS011;65157;50.082;18.178;2023-07-02T14:05:28;4.10;;;3.90;;
76336;SDS011;65157;50.082;18.178;2023-07-02T14:07:58;2.60;;;2.40;;
76336;SDS011;65157;50.082;18.178;2023-07-02T14:10:24;3.40;;;3.20;;
76336;SDS011;65157;50.082;18.178;2023-07-02T14:12:53;1.50;;;1.50;;
76336;SDS011;65157;50.082;18.178;2023-07-02T14:15:20;1.90;;;1.80;;
76336;SDS011;65157;50.082;18.178;2023-07-02T14:17:47;2.20;;;2.10;;
76336;SDS011;65157;50.082;18.178;2023-07-02T14:20:13;2.00;;;1.90;;
76336;SDS011;65157;50.082;18.178;2023-07-02T14:22:40;2.60;;;2.50;;
76336;SDS011;65157;50.082;18.178;2023-07-02T14:25:06;2.10;;;2.00;;
76336;SDS011;65157;50.082;18.178;2023-07-02T14:27:33;3.10;;;3.00;;
76336;SDS011;65157;50.082;18.178;2023-07-02T14:30:00;3.50;;;3.30;;
76336;SDS011;65157;50.082;18.178;2023-07-02T14:32:26;3.20;;;3.00;;
76336;SDS011;65157;50.082;18.178;2023-07-02T14:34:53;2.60;;;2.50;;
76336;SDS011;65157;50.082;18.178;2023-07-02T14:37:19;2.60;;;2.40;;
76336;SDS011;65157;50.082;18.178;2023-07-02T14:39:46;4.10;;;3.90;;
76336;SDS011;65157;50.082;18.178;2023-07-02T14:42:12;3.50;;;3.30;;
76336;SDS011;65157;50.082;18.178;2023-07-02T14:44:39;4.10;;;3.20;;
76336;SDS011;65157;50.082;18.178;2023-07-02T14:47:05;1.90;;;1.80;;
76336;SDS011;65157;50.082;18.178;2023-07-02T14:49:32;3.70;;;3.50;;
76336;SDS011;65157;50.082;18.178;2023-07-02T14:51:58;4.70;;;4.50;;
76336;SDS011;65157;50.082;18.178;2023-07-02T14:54:25;3.00;;;2.90;;
76336;SDS011;65157;50.082;18.178;2023-07-02T14:56:51;3.20;;;3.10;;
76336;SDS011;65157;50.082;18.178;2023-07-02T14:59:18;4.40;;;4.20;;
76336;SDS011;65157;50.082;18.178;2023-07-02T15:01:44;2.30;;;2.20;;
76336;SDS011;65157;50.082;18.178;2023-07-02T15:04:11;3.40;;;3.20;;
76336;SDS011;65157;50.082;18.178;2023-07-02T15:06:37;2.20;;;2.10;;
76336;SDS011;65157;50.082;18.178;2023-07-02T15:09:04;2.50;;;2.30;;
76336;SDS011;65157;50.082;18.178;2023-07-02T15:11:31;2.90;;;2.80;;
76336;SDS011;65157;50.082;18.178;2023-07-02T15:13:57;3.50;;;3.30;;
76336;SDS011;65157;50.082;18.178;2023-07-02T15:16:24;3.30;;;3.10;;
76336;SDS011;65157;50.082;18.178;2023-07-02T15:18:50;2.90;;;2.70;;
76336;SDS011;65157;50.082;18.178;2023-07-02T15:21:18;3.30;;;3.20;;
76336;SDS011;65157;50.082;18.178;2023-07-02T15:23:44;3.60;;;3.40;;
76336;SDS011;65157;50.082;18.178;2023-07-02T15:26:13;2.90;;;2.70;;
76336;SDS011;65157;50.082;18.178;2023-07-02T15:28:40;4.20;;;4.00;;
76336;SDS011;65157;50.082;18.178;2023-07-02T15:31:08;4.10;;;3.80;;
76336;SDS011;65157;50.082;18.178;2023-07-02T15:33:36;3.70;;;3.50;;
76336;SDS011;65157;50.082;18.178;2023-07-02T15:36:04;2.90;;;2.80;;
76336;SDS011;65157;50.082;18.178;2023-07-02T15:38:32;2.60;;;2.50;;
76336;SDS011;65157;50.082;18.178;2023-07-02T15:41:07;3.10;;;2.90;;
76336;SDS011;65157;50.082;18.178;2023-07-02T15:43:46;3.80;;;3.60;;
76336;SDS011;65157;50.082;18.178;2023-07-02T15:46:13;3.50;;;2.90;;
76336;SDS011;65157;50.082;18.178;2023-07-02T15:48:42;3.60;;;3.40;;
76336;SDS011;65157;50.082;18.178;2023-07-02T15:51:09;2.90;;;2.10;;
76336;SDS011;65157;50.082;18.178;2023-07-02T15:53:37;3.10;;;3.00;;
76336;SDS011;65157;50.082;18.178;2023-07-02T15:56:06;3.90;;;3.60;;
76336;SDS011;65157;50.082;18.178;2023-07-02T15:58:32;2.60;;;2.40;;
76336;SDS011;65157;50.082;18.178;2023-07-02T16:01:14;2.40;;;2.10;;
76336;SDS011;65157;50.082;18.178;2023-07-02T16:03:42;3.20;;;3.00;;
76336;SDS011;65157;50.082;18.178;2023-07-02T16:06:10;2.30;;;2.10;;
76336;SDS011;65157;50.082;18.178;2023-07-02T16:08:38;3.80;;;3.60;;
76336;SDS011;65157;50.082;18.178;2023-07-02T16:11:05;3.20;;;3.00;;
76336;SDS011;65157;50.082;18.178;2023-07-02T16:13:33;2.90;;;2.30;;